sensor_id;sensor_type;location;lat;lon;timestamp;pressure;altitude;pressure_sealevel;temperature;humidity
15007;BME280;7599;50.748;13.142;2023-03-16T00:01:56;96046.47;;;10.55;63.19
15007;BME280;7599;50.748;13.142;2023-03-16T00:05:00;96045.66;;;10.54;63.03
15007;BME280;7599;50.748;13.142;2023-03-16T00:08:03;96045.88;;;10.53;63.36
15007;BME280;7599;50.748;13.142;2023-03-16T00:11:05;96055.38;;;10.54;63.16
15007;BME280;7599;50.748;13.142;2023-03-16T00:14:09;96052.75;;;10.54;63.15
15007;BME280;7599;50.748;13.142;2023-03-16T00:17:13;96054.56;;;10.53;63.05
15007;BME280;7599;50.748;13.142;2023-03-16T00:20:20;96060.63;;;10.54;63.24
15007;BME280;7599;50.748;13.142;2023-03-16T00:23:25;96058.81;;;10.54;63.04
15007;BME280;7599;50.748;13.142;2023-03-16T00:26:28;96051.13;;;10.53;63.17
15007;BME280;7599;50.748;13.142;2023-03-16T00:29:33;96055.38;;;10.54;63.17
15007;BME280;7599;50.748;13.142;2023-03-16T00:32:37;96063.25;;;10.54;63.31
15007;BME280;7599;50.748;13.142;2023-03-16T00:35:41;96060.63;;;10.54;63.32
15007;BME280;7599;50.748;13.142;2023-03-16T00:38:50;96065.09;;;10.53;63.20
15007;BME280;7599;50.748;13.142;2023-03-16T00:41:58;96060.63;;;10.54;63.24
15007;BME280;7599;50.748;13.142;2023-03-16T00:45:03;96060.63;;;10.54;63.25
15007;BME280;7599;50.748;13.142;2023-03-16T00:48:06;96066.91;;;10.53;63.28
15007;BME280;7599;50.748;13.142;2023-03-16T00:51:10;96071.16;;;10.54;63.20
15007;BME280;7599;50.748;13.142;2023-03-16T00:54:15;96068.53;;;10.54;63.17
15007;BME280;7599;50.748;13.142;2023-03-16T00:57:19;96074.59;;;10.54;63.02
15007;BME280;7599;50.748;13.142;2023-03-16T01:00:23;96077.44;;;10.53;63.06
15007;BME280;7599;50.748;13.142;2023-03-16T01:03:29;96077.44;;;10.53;63.24
15007;BME280;7599;50.748;13.142;2023-03-16T01:06:32;96083.50;;;10.53;62.85
15007;BME280;7599;50.748;13.142;2023-03-16T01:09:34;96087.16;;;10.52;62.74
15007;BME280;7599;50.748;13.142;2023-03-16T01:12:37;96087.16;;;10.52;63.24
15007;BME280;7599;50.748;13.142;2023-03-16T01:15:42;96091.38;;;10.53;63.12
15007;BME280;7599;50.748;13.142;2023-03-16T01:18:46;96087.16;;;10.52;63.14
15007;BME280;7599;50.748;13.142;2023-03-16T01:21:49;96084.50;;;10.52;62.95
15007;BME280;7599;50.748;13.142;2023-03-16T01:24:52;96078.44;;;10.52;62.95
15007;BME280;7599;50.748;13.142;2023-03-16T01:27:55;96081.06;;;10.52;63.13
15007;BME280;7599;50.748;13.142;2023-03-16T01:31:02;96083.72;;;10.52;63.16
15007;BME280;7599;50.748;13.142;2023-03-16T01:34:05;96075.00;;;10.51;63.33
15007;BME280;7599;50.748;13.142;2023-03-16T01:37:07;96075.81;;;10.52;63.28
15007;BME280;7599;50.748;13.142;2023-03-16T01:40:11;96079.25;;;10.52;63.06
15007;BME280;7599;50.748;13.142;2023-03-16T01:43:13;96080.28;;;10.51;63.15
15007;BME280;7599;50.748;13.142;2023-03-16T01:46:22;96084.72;;;10.51;63.01
15007;BME280;7599;50.748;13.142;2023-03-16T01:49:28;96086.34;;;10.52;62.99
15007;BME280;7599;50.748;13.142;2023-03-16T01:52:34;96084.72;;;10.51;63.10
15007;BME280;7599;50.748;13.142;2023-03-16T01:55:40;96075.81;;;10.52;63.14
15007;BME280;7599;50.748;13.142;2023-03-16T01:58:44;96082.91;;;10.51;63.21
15007;BME280;7599;50.748;13.142;2023-03-16T02:01:49;96076.03;;;10.50;62.99
15007;BME280;7599;50.748;13.142;2023-03-16T02:04:57;96076.84;;;10.51;63.06
15007;BME280;7599;50.748;13.142;2023-03-16T02:08:04;96068.94;;;10.51;63.19
15007;BME280;7599;50.748;13.142;2023-03-16T02:11:08;96069.19;;;10.49;63.16
15007;BME280;7599;50.748;13.142;2023-03-16T02:14:11;96075.22;;;10.50;63.19
15007;BME280;7599;50.748;13.142;2023-03-16T02:17:18;96072.59;;;10.50;63.12
15007;BME280;7599;50.748;13.142;2023-03-16T02:20:30;96069.97;;;10.50;62.96
15007;BME280;7599;50.748;13.142;2023-03-16T02:23:34;96069.41;;;10.48;63.03
15007;BME280;7599;50.748;13.142;2023-03-16T02:26:40;96068.38;;;10.49;63.06
15007;BME280;7599;50.748;13.142;2023-03-16T02:29:56;96069.41;;;10.48;63.15
15007;BME280;7599;50.748;13.142;2023-03-16T02:33:02;96062.53;;;10.47;62.98
15007;BME280;7599;50.748;13.142;2023-03-16T02:36:06;96068.59;;;10.47;62.88
15007;BME280;7599;50.748;13.142;2023-03-16T02:39:08;96066.78;;;10.48;63.14
15007;BME280;7599;50.748;13.142;2023-03-16T02:42:13;96067.00;;;10.46;63.01
15007;BME280;7599;50.748;13.142;2023-03-16T02:45:18;96065.16;;;10.47;63.01
15007;BME280;7599;50.748;13.142;2023-03-16T02:48:24;96065.16;;;10.47;63.04
15007;BME280;7599;50.748;13.142;2023-03-16T02:51:29;96066.19;;;10.46;62.94
15007;BME280;7599;50.748;13.142;2023-03-16T02:54:32;96066.19;;;10.46;63.02
15007;BME280;7599;50.748;13.142;2023-03-16T02:57:35;96067.00;;;10.46;62.96
15007;BME280;7599;50.748;13.142;2023-03-16T03:00:39;96070.44;;;10.47;63.01
15007;BME280;7599;50.748;13.142;2023-03-16T03:03:42;96071.44;;;10.46;62.76
15007;BME280;7599;50.748;13.142;2023-03-16T03:06:45;96074.06;;;10.46;62.86
15007;BME280;7599;50.748;13.142;2023-03-16T03:09:47;96076.50;;;10.47;62.96
15007;BME280;7599;50.748;13.142;2023-03-16T03:12:53;96071.44;;;10.46;62.65
15007;BME280;7599;50.748;13.142;2023-03-16T03:15:59;96074.66;;;10.48;62.76
15007;BME280;7599;50.748;13.142;2023-03-16T03:19:02;96074.88;;;10.46;62.56
15007;BME280;7599;50.748;13.142;2023-03-16T03:22:04;96074.88;;;10.46;62.68
15007;BME280;7599;50.748;13.142;2023-03-16T03:25:07;96076.72;;;10.46;62.43
15007;BME280;7599;50.748;13.142;2023-03-16T03:28:10;96074.06;;;10.46;62.47
15007;BME280;7599;50.748;13.142;2023-03-16T03:31:15;96079.34;;;10.46;62.85
15007;BME280;7599;50.748;13.142;2023-03-16T03:34:18;96079.34;;;10.46;62.63
15007;BME280;7599;50.748;13.142;2023-03-16T03:37:21;96084.59;;;10.46;62.71
15007;BME280;7599;50.748;13.142;2023-03-16T03:40:24;96087.22;;;10.46;62.81
15007;BME280;7599;50.748;13.142;2023-03-16T03:43:27;96089.06;;;10.45;62.38
15007;BME280;7599;50.748;13.142;2023-03-16T03:46:31;96087.22;;;10.46;62.41
15007;BME280;7599;50.748;13.142;2023-03-16T03:49:34;96092.50;;;10.46;62.32
15007;BME280;7599;50.748;13.142;2023-03-16T03:52:36;96096.94;;;10.45;62.27
15007;BME280;7599;50.748;13.142;2023-03-16T03:55:39;96091.69;;;10.45;62.49
15007;BME280;7599;50.748;13.142;2023-03-16T03:58:41;96091.69;;;10.45;62.43
15007;BME280;7599;50.748;13.142;2023-03-16T04:01:45;96097.75;;;10.46;62.28
15007;BME280;7599;50.748;13.142;2023-03-16T04:04:49;96097.97;;;10.44;62.47
15007;BME280;7599;50.748;13.142;2023-03-16T04:07:52;96089.25;;;10.44;62.06
15007;BME280;7599;50.748;13.142;2023-03-16T04:10:57;96092.91;;;10.43;62.38
15007;BME280;7599;50.748;13.142;2023-03-16T04:14:02;96095.53;;;10.43;62.54
15007;BME280;7599;50.748;13.142;2023-03-16T04:17:06;96105.25;;;10.42;62.53
15007;BME280;7599;50.748;13.142;2023-03-16T04:20:10;96104.25;;;10.43;62.34
15007;BME280;7599;50.748;13.142;2023-03-16T04:23:15;96093.72;;;10.43;62.41
15007;BME280;7599;50.748;13.142;2023-03-16T04:26:19;96087.66;;;10.43;62.28
15007;BME280;7599;50.748;13.142;2023-03-16T04:29:21;96088.47;;;10.43;62.33
15007;BME280;7599;50.748;13.142;2023-03-16T04:32:26;96083.19;;;10.43;62.48
15007;BME280;7599;50.748;13.142;2023-03-16T04:35:29;96086.63;;;10.44;62.33
15007;BME280;7599;50.748;13.142;2023-03-16T04:38:32;96088.66;;;10.42;62.15
15007;BME280;7599;50.748;13.142;2023-03-16T04:41:35;96092.91;;;10.43;61.90
15007;BME280;7599;50.748;13.142;2023-03-16T04:44:38;96091.31;;;10.42;61.90
15007;BME280;7599;50.748;13.142;2023-03-16T04:47:46;96086.03;;;10.42;62.05
15007;BME280;7599;50.748;13.142;2023-03-16T04:50:50;96089.69;;;10.41;62.24
15007;BME280;7599;50.748;13.142;2023-03-16T04:53:52;96084.44;;;10.41;62.10
15007;BME280;7599;50.748;13.142;2023-03-16T04:56:55;96080.78;;;10.42;62.06
15007;BME280;7599;50.748;13.142;2023-03-16T04:59:59;96083.41;;;10.42;61.84
15007;BME280;7599;50.748;13.142;2023-03-16T05:03:03;96084.44;;;10.41;61.89
15007;BME280;7599;50.748;13.142;2023-03-16T05:06:06;96084.44;;;10.41;61.90
15007;BME280;7599;50.748;13.142;2023-03-16T05:09:10;96080.19;;;10.40;62.00
15007;BME280;7599;50.748;13.142;2023-03-16T05:12:14;96075.94;;;10.39;62.02
15007;BME280;7599;50.748;13.142;2023-03-16T05:15:16;96077.81;;;10.38;61.60
15007;BME280;7599;50.748;13.142;2023-03-16T05:18:21;96081.22;;;10.39;61.69
15007;BME280;7599;50.748;13.142;2023-03-16T05:21:25;96089.09;;;10.39;61.34
15007;BME280;7599;50.748;13.142;2023-03-16T05:24:28;96079.63;;;10.38;61.38
15007;BME280;7599;50.748;13.142;2023-03-16T05:27:31;96086.72;;;10.37;61.50
15007;BME280;7599;50.748;13.142;2023-03-16T05:30:35;96085.31;;;10.35;61.53
15007;BME280;7599;50.748;13.142;2023-03-16T05:33:39;96091.38;;;10.35;61.46
15007;BME280;7599;50.748;13.142;2023-03-16T05:36:42;96089.34;;;10.37;61.68
15007;BME280;7599;50.748;13.142;2023-03-16T05:39:45;96087.72;;;10.36;61.66
15007;BME280;7599;50.748;13.142;2023-03-16T05:42:52;96086.94;;;10.36;61.62
15007;BME280;7599;50.748;13.142;2023-03-16T05:45:56;96081.66;;;10.36;61.44
15007;BME280;7599;50.748;13.142;2023-03-16T05:49:00;96091.16;;;10.37;61.56
15007;BME280;7599;50.748;13.142;2023-03-16T05:52:03;96092.78;;;10.38;61.50
15007;BME280;7599;50.748;13.142;2023-03-16T05:55:07;96093.00;;;10.36;61.70
15007;BME280;7599;50.748;13.142;2023-03-16T05:58:10;96085.09;;;10.36;61.50
15007;BME280;7599;50.748;13.142;2023-03-16T06:01:13;96093.00;;;10.36;61.76
15007;BME280;7599;50.748;13.142;2023-03-16T06:04:17;96091.38;;;10.35;61.29
15007;BME280;7599;50.748;13.142;2023-03-16T06:07:19;96092.19;;;10.36;61.43
15007;BME280;7599;50.748;13.142;2023-03-16T06:10:23;96098.47;;;10.35;61.33
15007;BME280;7599;50.748;13.142;2023-03-16T06:13:27;96089.78;;;10.34;61.20
15007;BME280;7599;50.748;13.142;2023-03-16T06:16:30;96099.47;;;10.34;61.14
15007;BME280;7599;50.748;13.142;2023-03-16T06:19:34;96097.88;;;10.33;61.10
15007;BME280;7599;50.748;13.142;2023-03-16T06:22:38;96104.94;;;10.32;60.93
15007;BME280;7599;50.748;13.142;2023-03-16T06:25:41;96110.22;;;10.32;61.29
15007;BME280;7599;50.748;13.142;2023-03-16T06:28:44;96103.13;;;10.33;60.95
15007;BME280;7599;50.748;13.142;2023-03-16T06:31:47;96112.84;;;10.32;60.88
15007;BME280;7599;50.748;13.142;2023-03-16T06:34:53;96110.22;;;10.32;61.01
15007;BME280;7599;50.748;13.142;2023-03-16T06:37:55;96116.69;;;10.30;61.23
15007;BME280;7599;50.748;13.142;2023-03-16T06:40:58;96108.38;;;10.33;60.93
15007;BME280;7599;50.748;13.142;2023-03-16T06:44:02;96113.84;;;10.31;61.40
15007;BME280;7599;50.748;13.142;2023-03-16T06:47:06;96107.78;;;10.31;61.09
15007;BME280;7599;50.748;13.142;2023-03-16T06:50:11;96109.41;;;10.32;61.07
15007;BME280;7599;50.748;13.142;2023-03-16T06:53:14;96112.84;;;10.32;61.19
15007;BME280;7599;50.748;13.142;2023-03-16T06:56:17;96113.84;;;10.31;61.01
15007;BME280;7599;50.748;13.142;2023-03-16T06:59:19;96123.34;;;10.32;61.01
15007;BME280;7599;50.748;13.142;2023-03-16T07:02:22;96129.44;;;10.33;61.30
15007;BME280;7599;50.748;13.142;2023-03-16T07:05:26;96126.78;;;10.33;61.37
15007;BME280;7599;50.748;13.142;2023-03-16T07:08:29;96124.59;;;10.30;61.11
15007;BME280;7599;50.748;13.142;2023-03-16T07:11:32;96122.75;;;10.30;61.20
15007;BME280;7599;50.748;13.142;2023-03-16T07:14:35;96135.69;;;10.32;60.84
15007;BME280;7599;50.748;13.142;2023-03-16T07:17:38;96133.88;;;10.32;61.21
15007;BME280;7599;50.748;13.142;2023-03-16T07:20:42;96136.50;;;10.32;61.13
15007;BME280;7599;50.748;13.142;2023-03-16T07:23:45;96137.53;;;10.31;60.92
15007;BME280;7599;50.748;13.142;2023-03-16T07:26:48;96138.34;;;10.32;60.83
15007;BME280;7599;50.748;13.142;2023-03-16T07:29:50;96141.78;;;10.32;61.05
15007;BME280;7599;50.748;13.142;2023-03-16T07:32:53;96152.50;;;10.31;60.81
15007;BME280;7599;50.748;13.142;2023-03-16T07:36:02;96143.59;;;10.32;61.12
15007;BME280;7599;50.748;13.142;2023-03-16T07:39:06;96140.97;;;10.32;61.05
15007;BME280;7599;50.748;13.142;2023-03-16T07:42:14;96153.31;;;10.31;61.25
15007;BME280;7599;50.748;13.142;2023-03-16T07:45:17;96135.91;;;10.30;61.28
15007;BME280;7599;50.748;13.142;2023-03-16T07:48:35;96138.34;;;10.32;61.27
15007;BME280;7599;50.748;13.142;2023-03-16T08:09:51;96137.53;;;10.31;61.43
15007;BME280;7599;50.748;13.142;2023-03-16T08:12:58;96140.75;;;10.33;61.70
15007;BME280;7599;50.748;13.142;2023-03-16T08:16:05;96139.94;;;10.33;61.48
15007;BME280;7599;50.748;13.142;2023-03-16T08:19:10;96139.94;;;10.33;61.51
15007;BME280;7599;50.748;13.142;2023-03-16T08:22:13;96145.19;;;10.33;61.56
15007;BME280;7599;50.748;13.142;2023-03-16T08:25:17;96143.38;;;10.33;61.66
15007;BME280;7599;50.748;13.142;2023-03-16T08:28:20;96143.38;;;10.33;61.46
15007;BME280;7599;50.748;13.142;2023-03-16T08:31:23;96143.38;;;10.33;61.36
15007;BME280;7599;50.748;13.142;2023-03-16T08:34:26;96148.63;;;10.33;61.68
15007;BME280;7599;50.748;13.142;2023-03-16T08:37:29;96147.63;;;10.34;61.44
15007;BME280;7599;50.748;13.142;2023-03-16T08:40:33;96152.06;;;10.34;61.47
15007;BME280;7599;50.748;13.142;2023-03-16T08:43:36;96153.69;;;10.35;61.36
15007;BME280;7599;50.748;13.142;2023-03-16T08:46:39;96157.13;;;10.35;61.49
15007;BME280;7599;50.748;13.142;2023-03-16T08:49:43;96159.97;;;10.34;61.46
15007;BME280;7599;50.748;13.142;2023-03-16T08:52:46;96163.19;;;10.36;61.31
15007;BME280;7599;50.748;13.142;2023-03-16T08:55:51;96167.44;;;10.37;61.48
15007;BME280;7599;50.748;13.142;2023-03-16T08:58:53;96168.44;;;10.36;61.70
15007;BME280;7599;50.748;13.142;2023-03-16T09:01:56;96164.81;;;10.37;61.43
15007;BME280;7599;50.748;13.142;2023-03-16T09:05:00;96166.84;;;10.35;61.43
15007;BME280;7599;50.748;13.142;2023-03-16T09:08:03;96173.72;;;10.36;61.50
15007;BME280;7599;50.748;13.142;2023-03-16T09:11:09;96171.88;;;10.36;61.47
15007;BME280;7599;50.748;13.142;2023-03-16T09:14:13;96177.94;;;10.37;61.27
15007;BME280;7599;50.748;13.142;2023-03-16T09:17:15;96177.16;;;10.36;61.28
15007;BME280;7599;50.748;13.142;2023-03-16T09:20:19;96176.34;;;10.36;61.34
15007;BME280;7599;50.748;13.142;2023-03-16T09:23:27;96173.72;;;10.36;61.58
15007;BME280;7599;50.748;13.142;2023-03-16T09:26:31;96174.72;;;10.35;61.49
15007;BME280;7599;50.748;13.142;2023-03-16T09:29:34;96178.16;;;10.35;61.55
15007;BME280;7599;50.748;13.142;2023-03-16T09:32:37;96176.34;;;10.36;61.70
15007;BME280;7599;50.748;13.142;2023-03-16T09:35:40;96186.84;;;10.36;61.37
15007;BME280;7599;50.748;13.142;2023-03-16T09:38:43;96181.59;;;10.36;61.67
15007;BME280;7599;50.748;13.142;2023-03-16T09:41:50;96188.09;;;10.33;61.25
15007;BME280;7599;50.748;13.142;2023-03-16T09:45:02;96194.16;;;10.34;61.25
15007;BME280;7599;50.748;13.142;2023-03-16T09:48:09;96178.38;;;10.34;61.30
15007;BME280;7599;50.748;13.142;2023-03-16T09:51:16;96172.31;;;10.33;61.05
15007;BME280;7599;50.748;13.142;2023-03-16T09:54:26;96174.94;;;10.33;61.21
15007;BME280;7599;50.748;13.142;2023-03-16T09:57:33;96179.81;;;10.30;61.37
15007;BME280;7599;50.748;13.142;2023-03-16T10:00:40;96172.72;;;10.30;61.23
15007;BME280;7599;50.748;13.142;2023-03-16T10:04:04;96178.00;;;10.30;61.08
15007;BME280;7599;50.748;13.142;2023-03-16T10:07:18;96179.59;;;10.31;61.29
15007;BME280;7599;50.748;13.142;2023-03-16T10:10:35;96182.22;;;10.31;61.22
15007;BME280;7599;50.748;13.142;2023-03-16T10:13:46;96177.19;;;10.30;61.29
15007;BME280;7599;50.748;13.142;2023-03-16T10:16:52;96180.63;;;10.30;61.43
15007;BME280;7599;50.748;13.142;2023-03-16T10:20:00;96170.31;;;10.29;61.36
15007;BME280;7599;50.748;13.142;2023-03-16T10:23:15;96178.00;;;10.30;61.21
15007;BME280;7599;50.748;13.142;2023-03-16T10:26:22;96179.59;;;10.31;61.49
15007;BME280;7599;50.748;13.142;2023-03-16T10:29:31;96166.66;;;10.30;61.23
15007;BME280;7599;50.748;13.142;2023-03-16T10:32:35;96177.19;;;10.30;61.47
15007;BME280;7599;50.748;13.142;2023-03-16T10:35:41;96167.47;;;10.30;61.72
15007;BME280;7599;50.748;13.142;2023-03-16T10:38:50;96181.44;;;10.31;61.25
15007;BME280;7599;50.748;13.142;2023-03-16T10:41:56;96177.38;;;10.28;61.51
15007;BME280;7599;50.748;13.142;2023-03-16T10:45:00;96183.25;;;10.30;61.12
15007;BME280;7599;50.748;13.142;2023-03-16T10:48:05;96171.13;;;10.29;61.47
15007;BME280;7599;50.748;13.142;2023-03-16T10:51:11;96173.53;;;10.31;61.37
15007;BME280;7599;50.748;13.142;2023-03-16T10:54:22;96163.81;;;10.31;61.51
15007;BME280;7599;50.748;13.142;2023-03-16T10:57:30;96165.66;;;10.31;61.47
15007;BME280;7599;50.748;13.142;2023-03-16T11:00:36;96159.59;;;10.30;61.51
15007;BME280;7599;50.748;13.142;2023-03-16T11:03:40;96158.78;;;10.30;61.52
15007;BME280;7599;50.748;13.142;2023-03-16T11:06:52;96160.38;;;10.31;61.28
15007;BME280;7599;50.748;13.142;2023-03-16T11:09:56;96161.41;;;10.30;61.54
15007;BME280;7599;50.748;13.142;2023-03-16T11:13:01;96162.22;;;10.30;61.57
15007;BME280;7599;50.748;13.142;2023-03-16T11:16:16;96155.13;;;10.31;61.50
15007;BME280;7599;50.748;13.142;2023-03-16T11:19:25;96144.00;;;10.29;61.67
15007;BME280;7599;50.748;13.142;2023-03-16T11:22:29;96141.97;;;10.31;61.86
15007;BME280;7599;50.748;13.142;2023-03-16T11:25:36;96139.56;;;10.29;61.64
15007;BME280;7599;50.748;13.142;2023-03-16T11:28:45;96149.88;;;10.31;61.63
15007;BME280;7599;50.748;13.142;2023-03-16T11:31:53;96136.94;;;10.29;61.48
15007;BME280;7599;50.748;13.142;2023-03-16T11:34:58;96129.03;;;10.29;61.36
15007;BME280;7599;50.748;13.142;2023-03-16T11:38:12;96131.66;;;10.29;61.59
15007;BME280;7599;50.748;13.142;2023-03-16T11:41:21;96131.47;;;10.31;61.67
15007;BME280;7599;50.748;13.142;2023-03-16T11:44:33;96128.84;;;10.31;61.57
15007;BME280;7599;50.748;13.142;2023-03-16T11:47:52;96115.09;;;10.29;61.51
15007;BME280;7599;50.748;13.142;2023-03-16T11:51:04;96118.53;;;10.29;61.52
15007;BME280;7599;50.748;13.142;2023-03-16T11:54:34;96113.25;;;10.29;61.50
15007;BME280;7599;50.748;13.142;2023-03-16T11:57:49;96116.69;;;10.30;61.60
15007;BME280;7599;50.748;13.142;2023-03-16T12:01:00;96107.19;;;10.29;61.65
15007;BME280;7599;50.748;13.142;2023-03-16T12:04:32;96107.19;;;10.29;61.63
15007;BME280;7599;50.748;13.142;2023-03-16T12:07:51;96118.53;;;10.29;61.57
15007;BME280;7599;50.748;13.142;2023-03-16T12:11:01;96112.47;;;10.29;61.42
15007;BME280;7599;50.748;13.142;2023-03-16T12:14:13;96105.97;;;10.31;61.64
15007;BME280;7599;50.748;13.142;2023-03-16T12:17:22;96099.91;;;10.31;61.37
15007;BME280;7599;50.748;13.142;2023-03-16T12:20:31;96107.00;;;10.30;61.70
15007;BME280;7599;50.748;13.142;2023-03-16T12:23:37;96106.78;;;10.32;61.79
15007;BME280;7599;50.748;13.142;2023-03-16T12:26:42;96097.06;;;10.32;61.67
15007;BME280;7599;50.748;13.142;2023-03-16T12:29:52;96097.06;;;10.32;61.75
15007;BME280;7599;50.748;13.142;2023-03-16T12:33:00;96089.38;;;10.31;61.77
15007;BME280;7599;50.748;13.142;2023-03-16T12:36:31;96086.53;;;10.32;61.64
15007;BME280;7599;50.748;13.142;2023-03-16T12:39:47;96085.75;;;10.32;61.83
15007;BME280;7599;50.748;13.142;2023-03-16T12:42:59;96081.72;;;10.29;61.53
15007;BME280;7599;50.748;13.142;2023-03-16T12:46:09;96084.13;;;10.31;61.84
15007;BME280;7599;50.748;13.142;2023-03-16T12:49:15;96077.84;;;10.32;61.60
15007;BME280;7599;50.748;13.142;2023-03-16T12:52:21;96069.38;;;10.30;61.62
15007;BME280;7599;50.748;13.142;2023-03-16T12:55:38;96067.75;;;10.29;61.85
15007;BME280;7599;50.748;13.142;2023-03-16T12:58:43;96065.13;;;10.29;61.54
15007;BME280;7599;50.748;13.142;2023-03-16T13:01:50;96055.41;;;10.29;61.81
15007;BME280;7599;50.748;13.142;2023-03-16T13:04:56;96054.63;;;10.29;61.70
15007;BME280;7599;50.748;13.142;2023-03-16T13:08:07;96050.97;;;10.30;61.95
15007;BME280;7599;50.748;13.142;2023-03-16T13:11:12;96049.34;;;10.29;61.43
15007;BME280;7599;50.748;13.142;2023-03-16T13:14:33;96037.22;;;10.28;61.81
15007;BME280;7599;50.748;13.142;2023-03-16T13:17:36;96040.44;;;10.30;61.67
15007;BME280;7599;50.748;13.142;2023-03-16T13:20:49;96043.06;;;10.30;61.55
15007;BME280;7599;50.748;13.142;2023-03-16T13:23:57;96041.25;;;10.30;61.88
15007;BME280;7599;50.748;13.142;2023-03-16T13:27:05;96035.19;;;10.30;61.54
15007;BME280;7599;50.748;13.142;2023-03-16T13:30:16;96034.16;;;10.31;61.66
15007;BME280;7599;50.748;13.142;2023-03-16T13:33:22;96017.00;;;10.28;62.07
15007;BME280;7599;50.748;13.142;2023-03-16T13:36:25;96031.75;;;10.29;62.01
15007;BME280;7599;50.748;13.142;2023-03-16T13:39:30;96030.94;;;10.29;61.84
15007;BME280;7599;50.748;13.142;2023-03-16T13:42:33;96023.06;;;10.29;61.78
15007;BME280;7599;50.748;13.142;2023-03-16T13:45:37;96019.63;;;10.28;61.86
15007;BME280;7599;50.748;13.142;2023-03-16T13:48:39;96027.88;;;10.32;61.70
15007;BME280;7599;50.748;13.142;2023-03-16T13:51:42;96024.25;;;10.33;61.57
15007;BME280;7599;50.748;13.142;2023-03-16T13:54:48;96020.81;;;10.32;61.70
15007;BME280;7599;50.748;13.142;2023-03-16T13:57:51;96022.63;;;10.32;61.65
15007;BME280;7599;50.748;13.142;2023-03-16T14:00:55;96017.38;;;10.32;61.42
15007;BME280;7599;50.748;13.142;2023-03-16T14:04:00;96012.91;;;10.32;61.64
15007;BME280;7599;50.748;13.142;2023-03-16T14:07:12;96017.59;;;10.30;61.67
15007;BME280;7599;50.748;13.142;2023-03-16T14:10:20;96013.94;;;10.31;61.74
15007;BME280;7599;50.748;13.142;2023-03-16T14:13:29;96010.28;;;10.32;61.62
15007;BME280;7599;50.748;13.142;2023-03-16T14:16:34;96010.28;;;10.32;61.91
15007;BME280;7599;50.748;13.142;2023-03-16T14:19:40;96007.44;;;10.34;61.93
15007;BME280;7599;50.748;13.142;2023-03-16T14:22:44;96008.47;;;10.33;61.78
15007;BME280;7599;50.748;13.142;2023-03-16T14:25:48;96016.34;;;10.33;62.01
15007;BME280;7599;50.748;13.142;2023-03-16T14:28:56;96015.13;;;10.35;61.95
15007;BME280;7599;50.748;13.142;2023-03-16T14:32:00;96020.38;;;10.35;61.91
15007;BME280;7599;50.748;13.142;2023-03-16T14:35:11;96018.56;;;10.36;61.75
15007;BME280;7599;50.748;13.142;2023-03-16T14:38:19;96021.19;;;10.36;61.90
15007;BME280;7599;50.748;13.142;2023-03-16T14:41:24;96016.94;;;10.35;61.49
15007;BME280;7599;50.748;13.142;2023-03-16T14:44:30;96014.31;;;10.35;61.66
15007;BME280;7599;50.748;13.142;2023-03-16T14:47:38;96015.13;;;10.35;61.74
15007;BME280;7599;50.748;13.142;2023-03-16T14:50:43;96004.81;;;10.34;61.67
15007;BME280;7599;50.748;13.142;2023-03-16T14:53:46;96008.25;;;10.34;61.75
15007;BME280;7599;50.748;13.142;2023-03-16T14:56:52;96007.22;;;10.35;61.71
15007;BME280;7599;50.748;13.142;2023-03-16T14:59:55;95991.44;;;10.35;61.76
15007;BME280;7599;50.748;13.142;2023-03-16T15:03:01;95992.25;;;10.36;61.79
15007;BME280;7599;50.748;13.142;2023-03-16T15:06:05;95980.94;;;10.35;61.80
15007;BME280;7599;50.748;13.142;2023-03-16T15:09:23;95982.53;;;10.36;61.88
15007;BME280;7599;50.748;13.142;2023-03-16T15:12:30;95990.44;;;10.36;61.86
15007;BME280;7599;50.748;13.142;2023-03-16T15:15:34;95992.25;;;10.36;61.78
15007;BME280;7599;50.748;13.142;2023-03-16T15:18:37;95989.63;;;10.36;61.89
15007;BME280;7599;50.748;13.142;2023-03-16T15:21:40;95981.94;;;10.34;62.04
15007;BME280;7599;50.748;13.142;2023-03-16T15:24:43;95981.72;;;10.36;62.01
15007;BME280;7599;50.748;13.142;2023-03-16T15:27:47;95976.47;;;10.36;61.84
15007;BME280;7599;50.748;13.142;2023-03-16T15:30:51;95976.00;;;10.39;61.84
15007;BME280;7599;50.748;13.142;2023-03-16T15:33:54;95958.66;;;10.38;62.01
15007;BME280;7599;50.748;13.142;2023-03-16T15:36:57;95966.53;;;10.38;62.04
15007;BME280;7599;50.748;13.142;2023-03-16T15:39:59;95956.03;;;10.38;62.10
15007;BME280;7599;50.748;13.142;2023-03-16T15:43:05;95948.13;;;10.38;61.77
15007;BME280;7599;50.748;13.142;2023-03-16T15:46:11;95942.88;;;10.38;62.13
15007;BME280;7599;50.748;13.142;2023-03-16T15:49:14;95943.69;;;10.38;62.14
15007;BME280;7599;50.748;13.142;2023-03-16T15:52:23;95952.34;;;10.39;62.03
15007;BME280;7599;50.748;13.142;2023-03-16T15:55:31;95956.59;;;10.40;61.93
15007;BME280;7599;50.748;13.142;2023-03-16T15:58:39;95955.78;;;10.39;62.24
15007;BME280;7599;50.748;13.142;2023-03-16T16:01:44;95955.78;;;10.39;61.87
15007;BME280;7599;50.748;13.142;2023-03-16T16:04:47;95949.72;;;10.39;61.89
15007;BME280;7599;50.748;13.142;2023-03-16T16:07:50;95951.31;;;10.40;62.04
15007;BME280;7599;50.748;13.142;2023-03-16T16:10:53;95947.09;;;10.39;61.66
15007;BME280;7599;50.748;13.142;2023-03-16T16:13:58;95953.94;;;10.40;61.73
15007;BME280;7599;50.748;13.142;2023-03-16T16:17:01;95947.69;;;10.41;61.59
15007;BME280;7599;50.748;13.142;2023-03-16T16:20:16;95951.31;;;10.40;61.42
15007;BME280;7599;50.748;13.142;2023-03-16T16:23:20;95951.31;;;10.40;61.74
15007;BME280;7599;50.748;13.142;2023-03-16T16:26:27;95959.22;;;10.40;61.74
15007;BME280;7599;50.748;13.142;2023-03-16T16:29:50;95953.94;;;10.40;61.84
15007;BME280;7599;50.748;13.142;2023-03-16T16:32:53;95963.66;;;10.39;61.85
15007;BME280;7599;50.748;13.142;2023-03-16T16:36:00;95949.72;;;10.39;61.65
15007;BME280;7599;50.748;13.142;2023-03-16T16:39:04;95949.72;;;10.39;61.91
15007;BME280;7599;50.748;13.142;2023-03-16T16:42:13;95939.19;;;10.39;61.91